Friday, May 8, 2009

Here Comes the Weekend!

Planning a 2100Z departure from KBDR this afternoon. From the looks of the KDCA forecast, I suspect I may find some showers to work around as I near home plate.

KDCA 081124Z 0812/0912 23005KT P6SM FEW040 SCT200 
     TEMPO 0812/0813 5SM BR 
     FM081800 21010KT P6SM VCSH BKN045CB 
     FM090000 18007KT P6SM VCSH BKN035CB OVC050 
     FM091000 24008KT 4SM -SHRA BKN020CB OVC030

Most of the TAF's along the expected route are suggesting mid-level CB's, so I may need to request some deviations from ATC around the build-ups.

I have been needing for some weeks to deal with some matters in northern New Jersey and had been hoping to fly up to Caldwell (KCDW) tomorrow morning and return tomorrow afternoon. But the forecast for tomorrow morning looks "iffy".

Monday should be great!

No comments: